Time;durP1;ratioP1;P1;durP2;ratioP2;P2;SDS_P1;SDS_P2;PMS_P1;PMS_P2;Temp;Humidity;BMP_temperature;BMP_pressure;BME280_temperature;BME280_humidity;BME280_pressure;Samples;Min_cycle;Max_cycle;Signal;HPM_P1;HPM_P2
2024/01/02 00:01:47;;;;;;;49.90;32.75;;;;;;;4.17;100.00;100290.56;5031022;28;20120;-71
2024/01/02 00:04:12;;;;;;;49.58;31.70;;;;;;;4.21;100.00;100297.66;5031075;28;20061;-70
2024/01/02 00:06:38;;;;;;;50.00;32.38;;;;;;;4.16;100.00;100295.59;5031152;28;20045;-69
2024/01/02 00:09:03;;;;;;;50.33;31.38;;;;;;;4.02;100.00;100287.97;5031095;28;20123;-70
2024/01/02 00:11:30;;;;;;;46.83;31.67;;;;;;;3.68;100.00;100228.91;5012670;28;20049;-70
2024/01/02 00:13:56;;;;;;;49.03;30.65;;;;;;;4.13;100.00;100313.31;5000144;28;20038;-72
2024/01/02 00:16:22;;;;;;;48.10;30.92;;;;;;;4.07;100.00;100300.16;5023451;28;20052;-70
2024/01/02 00:18:47;;;;;;;47.33;31.00;;;;;;;4.00;100.00;100312.56;5025579;28;20500;-73
2024/01/02 00:21:13;;;;;;;49.80;30.52;;;;;;;3.71;100.00;100259.69;5011667;28;20137;-73
2024/01/02 00:23:38;;;;;;;46.47;30.20;;;;;;;3.89;100.00;100281.25;5012545;28;20472;-71
2024/01/02 00:26:04;;;;;;;48.33;30.02;;;;;;;3.62;100.00;100244.72;5011846;28;20042;-70
2024/01/02 00:28:29;;;;;;;48.83;32.35;;;;;;;3.86;100.00;100308.28;5026266;28;20045;-70
2024/01/02 00:30:55;;;;;;;51.17;31.52;;;;;;;3.68;100.00;100295.28;5031916;28;20068;-72
2024/01/02 00:33:20;;;;;;;47.17;31.38;;;;;;;3.72;100.00;100294.66;5032135;28;20064;-72
2024/01/02 00:35:46;;;;;;;50.08;32.80;;;;;;;3.28;100.00;100214.56;5031333;28;20048;-71
2024/01/02 00:38:11;;;;;;;49.08;31.80;;;;;;;3.81;100.00;100302.00;5032929;28;20079;-70
2024/01/02 00:40:37;;;;;;;51.50;31.83;;;;;;;3.84;100.00;100304.75;5032983;28;20040;-69
2024/01/02 00:43:03;;;;;;;48.55;32.22;;;;;;;3.71;100.00;100291.25;5032319;28;20464;-70
2024/01/02 00:45:28;;;;;;;47.60;32.42;;;;;;;3.77;100.00;100310.28;5031355;28;20036;-70
2024/01/02 00:47:54;;;;;;;50.70;31.95;;;;;;;3.74;100.00;100310.97;5032488;28;20095;-69
2024/01/02 00:50:21;;;;;;;52.90;32.05;;;;;;;3.69;100.00;100304.69;5031176;28;20083;-72
2024/01/02 00:52:47;;;;;;;53.92;34.20;;;;;;;3.81;100.00;100312.22;5032544;28;20061;-72
2024/01/02 00:55:12;;;;;;;47.45;32.75;;;;;;;3.58;100.00;100292.91;5032095;28;20088;-71
2024/01/02 00:57:38;;;;;;;62.38;36.67;;;;;;;3.42;100.00;100286.88;5032058;28;20164;-70
2024/01/02 01:00:05;;;;;;;58.13;34.70;;;;;;;3.43;100.00;100281.00;5032795;28;20025;-70
2024/01/02 01:02:31;;;;;;;61.45;36.28;;;;;;;3.53;100.00;100290.09;5032127;28;20543;-70
2024/01/02 01:04:56;;;;;;;57.83;37.03;;;;;;;3.09;100.00;100215.09;5032965;28;20060;-71
2024/01/02 01:07:22;;;;;;;55.97;34.60;;;;;;;3.55;100.00;100291.06;5031080;28;20033;-71
2024/01/02 01:09:47;;;;;;;49.70;32.95;;;;;;;3.49;100.00;100276.25;5031569;28;20033;-71
2024/01/02 01:12:13;;;;;;;53.15;31.30;;;;;;;3.50;100.00;100257.63;5032264;28;20056;-71
2024/01/02 01:14:38;;;;;;;55.83;32.53;;;;;;;3.67;100.00;100273.09;5032145;28;20491;-70
2024/01/02 01:17:05;;;;;;;49.03;31.55;;;;;;;3.40;100.00;100220.44;5032114;28;20033;-70
2024/01/02 01:19:32;;;;;;;49.15;29.90;;;;;;;3.68;100.00;100265.50;5031953;28;20043;-70
2024/01/02 01:21:57;;;;;;;52.05;31.73;;;;;;;3.86;100.00;100270.88;5032095;28;20075;-71
2024/01/02 01:24:23;;;;;;;51.20;32.35;;;;;;;3.25;100.00;100173.53;5032003;28;20439;-70
2024/01/02 01:26:52;;;;;;;54.13;33.17;;;;;;;3.80;100.00;100259.38;5031881;28;20033;-69
2024/01/02 01:29:20;;;;;;;55.90;34.10;;;;;;;3.88;100.00;100278.63;5031855;28;20464;-69
2024/01/02 01:31:46;;;;;;;51.70;34.75;;;;;;;3.88;100.00;100258.19;5030283;28;20128;-70
2024/01/02 01:34:11;;;;;;;56.10;34.90;;;;;;;3.77;100.00;100242.19;5031388;28;20596;-69
2024/01/02 01:36:37;;;;;;;54.65;34.90;;;;;;;3.80;100.00;100256.81;5031580;28;20075;-69
2024/01/02 01:39:04;;;;;;;57.85;34.08;;;;;;;3.84;100.00;100261.34;5030668;28;20026;-69
2024/01/02 01:41:30;;;;;;;53.45;35.10;;;;;;;3.60;100.00;100228.44;5031154;28;20460;-69
2024/01/02 01:43:56;;;;;;;58.65;35.72;;;;;;;3.52;100.00;100229.63;5031149;28;20104;-73
2024/01/02 01:46:22;;;;;;;59.42;35.35;;;;;;;3.61;100.00;100258.25;5031469;28;20021;-71
2024/01/02 01:48:48;;;;;;;56.92;34.50;;;;;;;3.42;100.00;100250.28;5031193;28;20029;-69
2024/01/02 01:51:14;;;;;;;55.50;35.40;;;;;;;3.50;100.00;100259.28;5031344;28;20412;-70
2024/01/02 01:53:43;;;;;;;62.65;35.88;;;;;;;3.43;100.00;100255.47;5030789;28;20049;-69
2024/01/02 01:56:09;;;;;;;54.45;34.80;;;;;;;3.33;100.00;100273.56;5031160;28;20037;-74
2024/01/02 01:58:35;;;;;;;57.40;35.00;;;;;;;3.19;100.00;100281.22;5031537;28;20025;-73
2024/01/02 02:01:00;;;;;;;61.80;36.38;;;;;;;3.10;100.00;100282.28;5030817;28;20455;-73
2024/01/02 02:03:27;;;;;;;56.22;34.30;;;;;;;2.63;100.00;100222.34;5012289;28;20033;-68
2024/01/02 02:05:52;;;;;;;66.35;38.83;;;;;;;2.94;100.00;100290.63;5030817;28;20483;-69
2024/01/02 02:08:18;;;;;;;64.50;38.42;;;;;;;2.90;100.00;100299.72;5031265;28;20025;-69
2024/01/02 02:10:43;;;;;;;56.17;36.55;;;;;;;2.95;100.00;100289.84;5030594;28;20392;-72
2024/01/02 02:13:09;;;;;;;62.00;38.47;;;;;;;2.97;100.00;100291.69;5031057;28;20021;-73
2024/01/02 02:15:38;;;;;;;58.88;36.70;;;;;;;3.06;100.00;100299.06;5030365;28;20557;-69
2024/01/02 02:18:04;;;;;;;58.60;35.92;;;;;;;3.11;100.00;100281.50;5030639;28;20021;-71
2024/01/02 02:20:30;;;;;;;61.17;36.88;;;;;;;3.15;100.00;100263.06;5030853;28;20034;-71
2024/01/02 02:22:55;;;;;;;63.45;38.00;;;;;;;3.38;100.00;100270.47;5030520;28;20067;-70
2024/01/02 02:25:21;;;;;;;64.63;38.25;;;;;;;3.48;100.00;100266.84;5029525;28;20508;-69
2024/01/02 02:27:47;;;;;;;68.63;38.70;;;;;;;3.61;100.00;100262.50;5030761;28;20044;-70
2024/01/02 02:30:13;;;;;;;59.72;37.42;;;;;;;3.55;100.00;100245.13;5029268;28;20044;-72
2024/01/02 02:32:38;;;;;;;57.70;34.17;;;;;;;3.09;100.00;100146.25;5030157;28;20034;-70
2024/01/02 02:35:05;;;;;;;71.43;35.08;;;;;;;3.79;100.00;100249.94;5030536;28;20033;-73
2024/01/02 02:37:31;;;;;;;61.78;34.75;;;;;;;3.79;100.00;100238.09;5030159;28;20037;-70
2024/01/02 02:39:56;;;;;;;61.80;35.63;;;;;;;3.89;100.00;100231.88;5011490;28;20478;-70
2024/01/02 02:42:22;;;;;;;64.05;35.78;;;;;;;4.04;100.00;100249.78;5030460;28;20187;-70
2024/01/02 02:44:47;;;;;;;61.85;35.17;;;;;;;4.12;100.00;100257.88;5030213;28;20029;-71
2024/01/02 02:47:13;;;;;;;56.45;34.88;;;;;;;4.11;100.00;100253.56;5030514;28;20040;-70
2024/01/02 02:49:39;;;;;;;58.75;33.80;;;;;;;4.25;100.00;100269.69;5030633;28;20091;-71
2024/01/02 02:52:05;;;;;;;59.17;35.72;;;;;;;4.26;100.00;100271.47;5029230;28;20036;-74
2024/01/02 02:54:30;;;;;;;54.75;32.80;;;;;;;4.23;100.00;100268.75;5030183;28;20144;-71
2024/01/02 02:56:56;;;;;;;56.00;33.33;;;;;;;4.18;100.00;100263.34;5030275;28;20108;-70
2024/01/02 02:59:21;;;;;;;51.85;33.40;;;;;;;4.14;100.00;100252.06;5030007;28;20036;-77
2024/01/02 03:01:47;;;;;;;53.15;32.13;;;;;;;4.16;100.00;100265.84;5029999;28;20033;-71
2024/01/02 03:04:13;;;;;;;55.28;33.60;;;;;;;4.10;100.00;100260.34;5029844;28;20087;-72
2024/01/02 03:06:39;;;;;;;55.15;34.00;;;;;;;3.91;100.00;100247.28;5030078;28;20071;-70
2024/01/02 03:09:04;;;;;;;55.28;34.72;;;;;;;3.99;100.00;100261.41;5030191;28;20095;-74
2024/01/02 03:11:30;;;;;;;59.35;35.53;;;;;;;4.05;100.00;100257.53;5029861;28;20033;-71
2024/01/02 03:13:55;;;;;;;58.20;35.85;;;;;;;3.64;100.00;100179.31;5030068;28;20030;-71
2024/01/02 03:16:24;;;;;;;58.22;36.20;;;;;;;3.96;100.00;100245.88;5028582;28;20026;-70
2024/01/02 03:18:50;;;;;;;52.42;34.53;;;;;;;3.51;100.00;100187.03;5028778;28;20029;-70
2024/01/02 03:21:16;;;;;;;58.50;35.97;;;;;;;3.90;100.00;100254.06;5029661;28;20029;-75
2024/01/02 03:23:42;;;;;;;55.53;34.42;;;;;;;3.84;100.00;100240.94;5030051;28;20030;-72
2024/01/02 03:26:11;;;;;;;53.58;33.47;;;;;;;3.90;100.00;100238.75;5030004;28;20365;-74
2024/01/02 03:28:37;;;;;;;57.47;35.05;;;;;;;3.75;100.00;100223.38;5030123;28;20086;-72
2024/01/02 03:31:04;;;;;;;62.53;37.65;;;;;;;3.76;100.00;100237.00;5030046;28;20037;-70
2024/01/02 03:33:30;;;;;;;60.63;36.58;;;;;;;3.83;100.00;100222.16;5028541;28;20040;-71
2024/01/02 03:35:55;;;;;;;55.90;34.17;;;;;;;3.97;100.00;100222.09;5029638;28;20033;-71
2024/01/02 03:38:21;;;;;;;55.88;35.30;;;;;;;4.13;100.00;100231.56;5028187;28;20120;-69
2024/01/02 03:40:47;;;;;;;58.28;35.63;;;;;;;4.19;100.00;100231.91;5029670;28;20082;-71
2024/01/02 03:43:12;;;;;;;52.80;32.10;;;;;;;4.26;100.00;100241.72;5029714;28;20068;-70
2024/01/02 03:45:38;;;;;;;53.53;34.75;;;;;;;4.08;100.00;100231.28;5029484;28;20029;-71
2024/01/02 03:48:04;;;;;;;53.72;33.03;;;;;;;4.00;100.00;100225.72;5029903;28;20091;-71
2024/01/02 03:50:29;;;;;;;52.25;32.88;;;;;;;3.93;100.00;100253.38;5029639;28;20029;-70
2024/01/02 03:52:55;;;;;;;58.00;34.95;;;;;;;3.89;100.00;100262.50;5029735;28;20021;-70
2024/01/02 03:55:20;;;;;;;64.57;36.13;;;;;;;3.84;100.00;100266.47;5029262;28;20041;-71
2024/01/02 03:57:47;;;;;;;58.35;35.03;;;;;;;3.81;100.00;100261.16;5029561;28;20033;-72
2024/01/02 04:00:13;;;;;;;55.08;32.63;;;;;;;3.73;100.00;100260.69;5029263;28;20134;-70
2024/01/02 04:02:38;;;;;;;62.88;35.17;;;;;;;3.75;100.00;100265.88;5029520;28;20510;-72
2024/01/02 04:05:04;;;;;;;56.85;33.75;;;;;;;3.77;100.00;100260.06;5032437;28;20102;-76
2024/01/02 04:07:30;;;;;;;59.42;34.63;;;;;;;3.78;100.00;100260.97;5032839;28;20040;-70
2024/01/02 04:09:56;;;;;;;59.60;36.85;;;;;;;3.78;100.00;100268.63;5033306;28;20151;-70
2024/01/02 04:12:22;;;;;;;59.47;35.13;;;;;;;3.55;100.00;100258.78;5032952;28;20034;-69
2024/01/02 04:14:47;;;;;;;61.67;37.30;;;;;;;3.38;100.00;100279.81;5032593;28;20037;-71
2024/01/02 04:17:13;;;;;;;59.55;35.38;;;;;;;3.33;100.00;100276.97;5033137;28;20087;-69
2024/01/02 04:19:38;;;;;;;67.57;35.17;;;;;;;3.18;100.00;100251.38;5031544;28;20033;-70
2024/01/02 04:22:04;;;;;;;55.17;33.45;;;;;;;3.26;100.00;100264.59;5033211;28;20514;-73
2024/01/02 04:24:30;;;;;;;53.50;34.38;;;;;;;3.17;100.00;100239.41;5032485;28;20029;-71
2024/01/02 04:26:56;;;;;;;62.58;36.75;;;;;;;2.95;100.00;100172.53;5033087;28;20034;-70
2024/01/02 04:29:21;;;;;;;62.30;34.47;;;;;;;3.51;100.00;100253.38;5032685;28;20029;-70
2024/01/02 04:31:47;;;;;;;54.40;35.45;;;;;;;3.07;100.00;100165.66;5032999;28;20029;-70
2024/01/02 04:34:12;;;;;;;55.55;34.15;;;;;;;3.52;100.00;100240.72;5032200;28;20021;-76
2024/01/02 04:36:40;;;;;;;57.47;33.90;;;;;;;3.52;100.00;100225.38;5032768;28;20483;-69
2024/01/02 04:39:06;;;;;;;58.42;35.03;;;;;;;3.58;100.00;100234.22;5031237;28;20027;-69
2024/01/02 04:41:32;;;;;;;51.83;33.85;;;;;;;3.71;100.00;100258.06;5032555;28;20026;-70
2024/01/02 04:43:57;;;;;;;56.13;34.03;;;;;;;3.79;100.00;100249.94;5032234;28;20021;-69
2024/01/02 04:46:23;;;;;;;58.08;35.30;;;;;;;3.87;100.00;100256.41;5032661;28;20551;-69
2024/01/02 04:48:48;;;;;;;60.78;34.65;;;;;;;3.89;100.00;100255.72;5032333;28;20021;-70
2024/01/02 04:51:14;;;;;;;58.72;35.25;;;;;;;3.88;100.00;100258.19;5032471;28;20104;-68
2024/01/02 04:53:39;;;;;;;56.97;33.17;;;;;;;4.01;100.00;100267.44;5032348;28;20492;-70
2024/01/02 04:56:05;;;;;;;56.78;33.92;;;;;;;3.66;100.00;100192.16;5032557;28;20564;-75
2024/01/02 04:58:31;;;;;;;53.30;33.47;;;;;;;4.12;100.00;100275.78;5031886;28;20381;-70
2024/01/02 05:00:56;;;;;;;61.50;34.95;;;;;;;3.67;100.00;100193.94;5032123;28;20033;-73
2024/01/02 05:03:22;;;;;;;51.60;31.90;;;;;;;3.95;100.00;100255.22;5032539;28;20022;-74
2024/01/02 05:05:47;;;;;;;52.25;32.95;;;;;;;3.64;100.00;100225.28;5031995;28;20113;-71
2024/01/02 05:08:13;;;;;;;50.88;32.47;;;;;;;3.98;100.00;100280.94;5032350;28;20383;-71
2024/01/02 05:10:38;;;;;;;51.78;33.08;;;;;;;3.74;100.00;100277.78;5032091;28;20460;-71
2024/01/02 05:13:04;;;;;;;54.53;32.88;;;;;;;3.45;100.00;100286.19;5031886;28;20097;-70
2024/01/02 05:15:29;;;;;;;54.67;33.50;;;;;;;3.37;100.00;100285.72;5031072;28;20565;-70
2024/01/02 05:17:55;;;;;;;53.80;33.15;;;;;;;3.20;100.00;100275.31;5031179;28;20024;-74
2024/01/02 05:20:20;;;;;;;54.78;33.20;;;;;;;2.92;100.00;100253.16;5031995;28;20025;-70
2024/01/02 05:22:46;;;;;;;64.38;36.17;;;;;;;2.79;100.00;100247.16;5030420;28;20017;-70
2024/01/02 05:25:11;;;;;;;60.92;37.33;;;;;;;2.50;100.00;100195.19;5031338;28;20021;-72
2024/01/02 05:27:37;;;;;;;67.38;38.45;;;;;;;3.00;100.00;100261.28;5031340;28;20853;-76
2024/01/02 05:30:03;;;;;;;68.90;39.65;;;;;;;3.26;100.00;100266.28;5031658;28;20037;-70
2024/01/02 05:32:29;;;;;;;70.88;38.65;;;;;;;3.36;100.00;100272.03;5031438;28;20080;-71
2024/01/02 05:35:14;;;;;;;62.47;37.63;;;;;;;3.44;100.00;100269.09;5028980;28;20041;-70
2024/01/02 05:37:40;;;;;;;56.58;36.08;;;;;;;3.51;100.00;100256.81;5028421;28;20191;-70
2024/01/02 05:40:07;;;;;;;58.80;35.58;;;;;;;3.02;100.00;100160.25;5012329;28;20033;-72
2024/01/02 05:42:32;;;;;;;62.95;38.17;;;;;;;3.42;100.00;100219.66;5028854;28;20163;-71
2024/01/02 05:44:58;;;;;;;64.05;38.22;;;;;;;3.61;100.00;100250.59;5029152;28;20151;-70
2024/01/02 05:47:23;;;;;;;62.67;38.78;;;;;;;3.77;100.00;100264.31;5028804;28;20103;-72
2024/01/02 05:49:49;;;;;;;74.85;39.05;;;;;;;3.73;100.00;100248.78;5028806;28;20037;-70
2024/01/02 05:52:14;;;;;;;61.67;35.00;;;;;;;3.79;100.00;100249.94;5028217;28;20474;-70
2024/01/02 05:54:40;;;;;;;60.88;37.65;;;;;;;3.59;100.00;100211.34;5028449;28;20062;-71
2024/01/02 05:57:06;;;;;;;64.85;37.33;;;;;;;3.86;100.00;100275.06;5028246;28;20033;-72
2024/01/02 05:59:31;;;;;;;60.28;36.97;;;;;;;3.51;100.00;100243.16;5012096;28;20037;-70
2024/01/02 06:01:57;;;;;;;71.05;41.22;;;;;;;3.58;100.00;100275.94;5028208;28;20037;-70
2024/01/02 06:04:22;;;;;;;71.90;42.58;;;;;;;2.99;100.00;100198.34;5028649;28;20040;-72
2024/01/02 06:06:48;;;;;;;71.57;40.83;;;;;;;3.30;100.00;100255.47;5029814;28;20124;-74
2024/01/02 06:09:13;;;;;;;64.00;38.70;;;;;;;3.44;100.00;100279.31;5029833;28;20388;-69
2024/01/02 06:11:40;;;;;;;65.22;39.78;;;;;;;3.47;100.00;100292.28;5030881;28;20025;-69
2024/01/02 06:14:06;;;;;;;61.10;38.88;;;;;;;3.42;100.00;100296.22;5030953;28;20026;-70
2024/01/02 06:16:31;;;;;;;72.07;39.83;;;;;;;3.37;100.00;100299.34;5030723;28;20120;-70
2024/01/02 06:18:57;;;;;;;64.97;39.45;;;;;;;3.34;100.00;100309.38;5030935;28;20041;-76
2024/01/02 06:21:22;;;;;;;70.10;37.58;;;;;;;3.24;100.00;100329.97;5029225;28;20063;-71
2024/01/02 06:23:48;;;;;;;67.10;37.65;;;;;;;3.10;100.00;100328.19;5030462;28;20037;-70
2024/01/02 06:26:13;;;;;;;64.43;39.15;;;;;;;3.01;100.00;100344.66;5030618;28;20032;-70
2024/01/02 06:28:39;;;;;;;62.05;37.85;;;;;;;2.91;100.00;100348.28;5030660;28;20635;-72
2024/01/02 06:31:06;;;;;;;63.45;36.90;;;;;;;3.02;100.00;100335.38;5030475;28;20026;-70
2024/01/02 06:33:32;;;;;;;64.57;38.63;;;;;;;2.66;100.00;100259.13;5030323;28;20504;-70
2024/01/02 06:35:57;;;;;;;66.25;39.03;;;;;;;3.12;100.00;100319.00;5030314;28;20035;-70
2024/01/02 06:38:26;;;;;;;60.95;35.45;;;;;;;3.33;100.00;100338.22;5030371;28;20483;-70
2024/01/02 06:40:53;;;;;;;71.30;38.13;;;;;;;3.43;100.00;100333.69;5029993;28;20032;-70
2024/01/02 06:43:18;;;;;;;62.42;37.35;;;;;;;3.48;100.00;100327.22;5030444;28;20075;-70
2024/01/02 06:45:44;;;;;;;66.55;40.85;;;;;;;3.61;100.00;100337.38;5029770;28;20029;-72
2024/01/02 06:48:09;;;;;;;67.43;41.40;;;;;;;3.59;100.00;100336.44;5030804;28;20029;-73
2024/01/02 06:50:35;;;;;;;70.38;42.45;;;;;;;3.59;100.00;100339.00;5030273;28;20025;-69
2024/01/02 06:53:00;;;;;;;67.68;41.80;;;;;;;3.62;100.00;100335.75;5030325;28;20450;-71
2024/01/02 06:55:27;;;;;;;73.28;38.92;;;;;;;3.70;100.00;100344.75;5030330;28;20052;-70
2024/01/02 06:57:52;;;;;;;69.55;40.17;;;;;;;3.63;100.00;100323.06;5028723;28;20385;-74
2024/01/02 07:00:18;;;;;;;72.32;41.92;;;;;;;3.23;100.00;100279.75;5029700;28;20068;-72
2024/01/02 07:02:43;;;;;;;69.72;41.97;;;;;;;3.51;100.00;100327.41;5028952;28;20064;-70
2024/01/02 07:05:15;;;;;;;78.55;42.65;;;;;;;3.24;100.00;100266.19;5028396;28;20464;-71
2024/01/02 07:07:41;;;;;;;88.20;49.75;;;;;;;3.83;100.00;100343.84;5027309;28;20120;-70
2024/01/02 07:10:07;;;;;;;72.40;42.55;;;;;;;3.71;100.00;100321.88;5029816;28;20057;-73
2024/01/02 07:12:32;;;;;;;82.22;44.60;;;;;;;3.86;100.00;100346.56;5030031;28;20388;-69
2024/01/02 07:14:58;;;;;;;84.30;46.00;;;;;;;3.80;100.00;100335.97;5030139;28;20025;-70
2024/01/02 07:17:23;;;;;;;79.00;43.03;;;;;;;3.98;100.00;100339.66;5029683;28;20152;-69
2024/01/02 07:19:51;;;;;;;82.80;44.88;;;;;;;4.09;100.00;100352.22;5029786;28;20040;-69
2024/01/02 07:22:17;;;;;;;78.88;42.92;;;;;;;4.18;100.00;100351.09;5028437;28;20095;-71
2024/01/02 07:24:44;;;;;;;75.82;43.70;;;;;;;4.24;100.00;100349.69;5027750;28;20045;-69
2024/01/02 07:27:09;;;;;;;76.20;43.60;;;;;;;4.23;100.00;100353.94;5026373;28;20061;-71
2024/01/02 07:29:36;;;;;;;70.88;41.28;;;;;;;3.96;100.00;100295.28;5026812;28;20506;-69
2024/01/02 07:32:01;;;;;;;81.70;42.72;;;;;;;4.23;100.00;100364.16;5017212;28;20080;-71
2024/01/02 07:34:28;;;;;;;77.95;42.55;;;;;;;4.14;100.00;100359.38;5011487;28;20475;-71
2024/01/02 07:36:54;;;;;;;89.07;46.75;;;;;;;4.12;100.00;100355.84;5011635;28;20034;-71
2024/01/02 07:39:19;;;;;;;93.10;47.38;;;;;;;4.11;100.00;100345.53;5012573;28;20499;-71
2024/01/02 07:41:45;;;;;;;97.78;44.97;;;;;;;4.03;100.00;100345.06;5014193;28;20030;-70
2024/01/02 07:44:11;;;;;;;92.05;46.60;;;;;;;4.01;100.00;100339.88;5020799;28;20402;-73
2024/01/02 07:46:36;;;;;;;97.82;45.33;;;;;;;3.89;100.00;100306.78;5033119;28;20037;-71
2024/01/02 07:49:02;;;;;;;93.53;47.35;;;;;;;3.80;100.00;100283.25;5030655;28;20032;-72
2024/01/02 07:51:29;;;;;;;86.72;45.03;;;;;;;4.19;100.00;100354.56;5021392;28;20097;-68
2024/01/02 07:53:54;;;;;;;91.72;46.28;;;;;;;3.80;100.00;100293.47;5025429;28;20050;-70
2024/01/02 07:56:21;;;;;;;86.30;47.05;;;;;;;4.16;100.00;100354.34;5030685;28;20037;-70
2024/01/02 07:58:46;;;;;;;86.82;45.60;;;;;;;3.80;100.00;100287.47;5027994;28;20033;-71
2024/01/02 08:01:13;;;;;;;78.10;44.47;;;;;;;4.13;100.00;100352.50;5025042;28;20029;-70
2024/01/02 08:03:39;;;;;;;90.22;45.10;;;;;;;4.23;100.00;100366.72;5024811;28;20124;-70
2024/01/02 08:06:05;;;;;;;97.13;44.80;;;;;;;4.33;100.00;100370.72;5024832;28;20462;-71
2024/01/02 08:08:30;;;;;;;91.30;46.38;;;;;;;4.40;100.00;100362.63;5033267;28;20519;-71
2024/01/02 08:10:56;;;;;;;86.63;47.20;;;;;;;4.07;100.00;100289.94;5033496;28;20167;-69
2024/01/02 08:13:21;;;;;;;72.00;42.45;;;;;;;3.54;100.00;100190.66;5020023;28;20067;-70
2024/01/02 08:15:47;;;;;;;63.80;39.70;;;;;;;4.53;100.00;100354.00;5030008;28;20510;-70
2024/01/02 08:18:12;;;;;;;64.43;40.58;;;;;;;4.55;100.00;100360.13;5032515;28;20029;-76
2024/01/02 08:20:38;;;;;;;61.05;38.65;;;;;;;4.48;100.00;100358.84;5033016;28;20049;-73
2024/01/02 08:23:05;;;;;;;67.72;37.78;;;;;;;4.62;100.00;100379.25;5031464;28;20029;-73
2024/01/02 08:25:30;;;;;;;101.22;62.28;;;;;;;4.64;100.00;100382.78;5024488;28;20037;-72
2024/01/02 08:27:56;;;;;;;71.63;43.17;;;;;;;4.73;100.00;100385.00;5029894;28;20022;-73
2024/01/02 08:30:21;;;;;;;64.70;40.78;;;;;;;4.80;100.00;100380.34;5029644;28;20480;-69
2024/01/02 08:32:47;;;;;;;73.35;40.55;;;;;;;4.64;100.00;100357.22;5031078;28;20045;-71
2024/01/02 08:35:12;;;;;;;65.00;38.83;;;;;;;4.89;100.00;100391.91;5032839;28;20121;-70
2024/01/02 08:37:41;;;;;;;68.50;41.33;;;;;;;4.79;100.00;100404.13;5032716;28;20033;-76
2024/01/02 08:40:07;;;;;;;69.38;41.50;;;;;;;4.82;100.00;100393.19;5032797;28;20029;-73
2024/01/02 08:42:32;;;;;;;74.32;42.53;;;;;;;4.72;100.00;100373.88;5032918;28;20021;-69
2024/01/02 08:44:58;;;;;;;82.13;44.33;;;;;;;4.88;100.00;100385.88;5032302;28;20025;-71
2024/01/02 08:47:24;;;;;;;87.18;43.42;;;;;;;4.93;100.00;100371.69;5032670;28;20029;-75
2024/01/02 08:49:49;;;;;;;79.47;45.65;;;;;;;4.96;100.00;100369.31;5031766;28;20034;-68
2024/01/02 08:52:15;;;;;;;83.22;46.00;;;;;;;4.71;100.00;100318.44;5032462;28;20722;-70
2024/01/02 08:54:40;;;;;;;87.55;43.53;;;;;;;5.13;100.00;100379.63;5032258;28;20041;-70
2024/01/02 08:57:06;;;;;;;76.18;44.03;;;;;;;4.76;100.00;100306.78;5032447;28;20765;-70
2024/01/02 08:59:32;;;;;;;90.63;44.30;;;;;;;5.23;100.00;100381.03;5032799;28;20033;-70
2024/01/02 09:01:58;;;;;;;83.28;44.42;;;;;;;5.18;100.00;100357.75;5032511;28;20033;-71
2024/01/02 09:04:24;;;;;;;84.53;45.22;;;;;;;5.31;100.00;100367.88;5032343;28;20028;-70
2024/01/02 09:06:51;;;;;;;74.30;43.97;;;;;;;4.90;100.00;100291.31;5032289;28;20380;-69
2024/01/02 09:09:17;;;;;;;83.90;43.08;;;;;;;5.39;100.00;100373.44;5032765;28;20134;-69
2024/01/02 09:11:43;;;;;;;81.80;42.75;;;;;;;5.37;100.00;100366.47;5032661;28;20487;-70
2024/01/02 09:14:08;;;;;;;79.38;44.78;;;;;;;5.39;100.00;100342.72;5032773;28;20472;-70
2024/01/02 09:16:36;;;;;;;77.72;44.67;;;;;;;5.34;100.00;100331.34;5032514;28;20037;-69
2024/01/02 09:19:02;;;;;;;79.28;45.40;;;;;;;5.34;100.00;100321.97;5032629;28;20033;-70
2024/01/02 09:21:28;;;;;;;92.65;48.45;;;;;;;5.46;100.00;100334.56;5032497;28;20025;-69
2024/01/02 09:23:54;;;;;;;79.18;44.55;;;;;;;5.48;100.00;100326.97;5032195;28;20021;-71
2024/01/02 09:26:23;;;;;;;81.70;44.40;;;;;;;5.57;100.00;100318.91;5031226;28;20071;-71
2024/01/02 09:28:49;;;;;;;82.07;44.55;;;;;;;5.51;100.00;100306.69;5032582;28;20095;-70
2024/01/02 09:31:14;;;;;;;80.45;45.55;;;;;;;5.47;100.00;100314.97;5032027;28;20041;-70
2024/01/02 09:33:44;;;;;;;78.85;47.22;;;;;;;5.66;100.00;100332.25;5032214;28;20049;-70
2024/01/02 09:36:09;;;;;;;71.05;46.28;;;;;;;5.16;100.00;100237.38;5032455;28;20503;-71
2024/01/02 09:38:38;;;;;;;85.38;44.95;;;;;;;5.84;100.00;100340.03;5032022;28;20034;-70
2024/01/02 09:41:10;;;;;;;85.28;47.67;;;;;;;5.74;100.00;100338.63;5032107;28;20492;-70
2024/01/02 09:43:53;;;;;;;82.90;45.58;;;;;;;5.75;100.00;100336.97;5032556;28;20479;-69
2024/01/02 09:46:44;;;;;;;76.85;45.95;;;;;;;5.76;100.00;100339.63;5031935;28;20496;-71
2024/01/02 09:49:43;;;;;;;82.53;46.03;;;;;;;5.82;100.00;100339.06;4954241;28;20062;-70
2024/01/02 09:52:42;;;;;;;86.03;46.22;;;;;;;5.89;100.00;100348.81;4954444;28;20031;-75
2024/01/02 09:55:16;;;;;;;92.82;48.50;;;;;;;5.78;100.00;100357.63;4970315;28;20078;-76
2024/01/02 09:58:03;;;;;;;109.78;51.10;;;;;;;5.75;100.00;100354.91;4970487;28;20430;-70
2024/01/02 10:00:59;;;;;;;101.65;54.50;;;;;;;5.33;100.00;100286.06;4970524;28;20046;-76
2024/01/02 10:03:56;;;;;;;97.35;51.42;;;;;;;5.66;100.00;100345.91;4968737;28;20452;-75
2024/01/02 10:07:19;;;;;;;87.22;49.40;;;;;;;5.75;100.00;100360.91;4969608;28;20042;-70
2024/01/02 10:10:12;;;;;;;93.68;51.33;;;;;;;5.82;100.00;100351.88;4912543;29;20123;-70
2024/01/02 10:13:09;;;;;;;98.65;50.05;;;;;;;5.96;100.00;100345.81;4912776;29;20044;-70
2024/01/02 10:15:44;;;;;;;91.28;50.05;;;;;;;6.05;100.00;100350.56;4912854;29;20614;-69
2024/01/02 10:18:48;;;;;;;92.10;50.83;;;;;;;6.16;100.00;100351.16;4912683;29;20503;-69
2024/01/02 10:21:45;;;;;;;83.35;47.97;;;;;;;6.26;100.00;100353.38;4912737;29;20054;-70
2024/01/02 10:24:31;;;;;;;85.25;48.17;;;;;;;6.34;100.00;100361.47;4912633;29;20131;-69
2024/01/02 10:27:07;;;;;;;89.38;48.53;;;;;;;6.31;100.00;100362.19;4959641;28;20043;-70
2024/01/02 10:29:56;;;;;;;83.85;45.13;;;;;;;6.41;100.00;100363.56;4969866;28;20066;-69
2024/01/02 10:32:32;;;;;;;79.03;42.75;;;;;;;6.41;100.00;100365.25;4969706;28;20485;-68
2024/01/02 10:35:05;;;;;;;88.00;46.65;;;;;;;6.49;100.00;100376.78;4969809;28;20026;-70
2024/01/02 10:37:42;;;;;;;95.20;47.75;;;;;;;6.55;100.00;100381.34;4969771;28;20038;-73
2024/01/02 10:40:19;;;;;;;88.35;45.65;;;;;;;6.52;100.00;100376.03;4955415;28;20173;-73
2024/01/02 10:43:03;;;;;;;91.25;47.22;;;;;;;6.54;100.00;100379.59;4922747;29;20421;-70
2024/01/02 10:45:50;;;;;;;92.40;50.63;;;;;;;6.59;100.00;100368.78;4947251;28;20038;-70
2024/01/02 10:48:43;;;;;;;91.75;47.97;;;;;;;6.54;100.00;100351.38;4989610;28;20046;-75
2024/01/02 10:51:21;;;;;;;106.30;53.60;;;;;;;6.68;100.00;100368.34;5024981;28;20029;-70
2024/01/02 10:53:51;;;;;;;86.65;47.70;;;;;;;6.87;100.00;100374.44;5027796;28;20144;-72
2024/01/02 10:56:37;;;;;;;92.78;47.50;;;;;;;6.94;100.00;100367.09;5023626;28;20214;-70
2024/01/02 10:59:24;;;;;;;90.18;48.95;;;;;;;7.01;100.00;100372.53;5026831;28;20029;-74
2024/01/02 11:01:55;;;;;;;102.40;50.58;;;;;;;6.99;100.00;100353.59;5027367;28;20502;-70
2024/01/02 11:04:35;;;;;;;106.72;55.25;;;;;;;7.09;100.00;100366.97;5026695;28;20044;-71
2024/01/02 11:07:08;;;;;;;98.18;53.10;;;;;;;7.15;100.00;100366.38;5019190;28;20551;-75
2024/01/02 11:09:47;;;;;;;94.70;50.63;;;;;;;7.27;100.00;100371.25;5021765;28;20100;-73
2024/01/02 11:12:16;;;;;;;99.60;50.67;;;;;;;7.28;100.00;100362.75;5026876;28;20411;-74
2024/01/02 11:14:43;;;;;;;86.20;51.30;;;;;;;7.24;100.00;100351.44;4989163;28;20040;-71